Time;durP1;ratioP1;P1;durP2;ratioP2;P2;SDS_P1;SDS_P2;PMS_P1;PMS_P2;Temp;Humidity;BMP_temperature;BMP_pressure;BME280_temperature;BME280_humidity;BME280_pressure;Samples;Min_cycle;Max_cycle;Signal;HPM_P1;HPM_P2
2022/11/26 00:02:25;;;;;;;5.15;2.60;;;5.60;99.90;;;;;;5002671;28;20492;-78
2022/11/26 00:04:52;;;;;;;11.07;4.27;;;5.60;99.90;;;;;;5002458;28;20038;-78
2022/11/26 00:07:21;;;;;;;7.47;3.30;;;5.60;99.90;;;;;;5000861;28;20321;-78
2022/11/26 00:09:50;;;;;;;4.05;2.88;;;5.60;99.90;;;;;;4999144;28;20042;-78
2022/11/26 00:12:23;;;;;;;2.67;2.45;;;5.60;99.90;;;;;;4987216;28;20512;-78
2022/11/26 00:14:50;;;;;;;6.47;4.20;;;5.60;99.90;;;;;;5000801;28;20068;-79
2022/11/26 00:17:16;;;;;;;8.93;3.65;;;5.60;99.90;;;;;;5001824;28;20041;-78
2022/11/26 00:19:43;;;;;;;15.48;3.50;;;5.60;99.90;;;;;;5002075;28;20563;-79
2022/11/26 00:22:25;;;;;;;6.25;3.38;;;5.60;99.90;;;;;;5001513;28;20037;-79
2022/11/26 00:24:51;;;;;;;5.50;3.50;;;5.60;99.90;;;;;;5001120;28;20053;-79
2022/11/26 00:27:17;;;;;;;11.80;3.00;;;5.60;99.90;;;;;;4996271;28;20439;-78
2022/11/26 00:29:43;;;;;;;11.07;4.10;;;5.60;99.90;;;;;;4987244;28;20117;-78
2022/11/26 00:32:21;;;;;;;8.77;3.30;;;5.50;99.90;;;;;;4982593;28;20140;-78
2022/11/26 00:34:46;;;;;;;5.22;2.08;;;5.60;99.90;;;;;;5000396;28;20100;-78
2022/11/26 00:37:42;;;;;;;16.55;3.65;;;5.50;99.90;;;;;;4999607;28;20483;-78
2022/11/26 00:40:21;;;;;;;4.95;3.67;;;5.50;99.90;;;;;;4981163;28;20100;-78
2022/11/26 00:42:47;;;;;;;6.60;4.57;;;5.50;99.90;;;;;;4995575;28;20057;-79
2022/11/26 00:45:25;;;;;;;13.23;2.92;;;5.60;99.90;;;;;;5001985;28;20045;-78
2022/11/26 00:47:51;;;;;;;9.00;5.07;;;5.50;99.90;;;;;;4984129;28;20523;-78
2022/11/26 00:50:19;;;;;;;11.00;5.03;;;5.50;99.90;;;;;;5002344;28;20180;-78
2022/11/26 00:52:47;;;;;;;6.95;2.70;;;5.60;99.90;;;;;;5000783;28;20099;-79
2022/11/26 00:55:22;;;;;;;6.45;3.30;;;5.60;99.90;;;;;;4985924;28;20133;-79
2022/11/26 00:57:47;;;;;;;16.58;3.40;;;5.50;99.90;;;;;;4965753;28;20410;-78
2022/11/26 01:00:23;;;;;;;22.02;4.38;;;5.50;99.90;;;;;;4996982;28;20049;-78
2022/11/26 01:02:49;;;;;;;4.22;2.60;;;5.50;99.90;;;;;;5001839;28;20096;-79
2022/11/26 01:05:15;;;;;;;8.63;2.80;;;5.40;99.90;;;;;;5002885;28;20125;-78
2022/11/26 01:07:41;;;;;;;16.95;4.63;;;5.40;99.90;;;;;;5000639;28;20597;-79
2022/11/26 01:10:28;;;;;;;9.40;3.20;;;5.40;99.90;;;;;;5002060;28;20042;-78
2022/11/26 01:12:55;;;;;;;4.93;2.38;;;5.40;99.90;;;;;;5000434;28;20042;-79
2022/11/26 01:15:23;;;;;;;22.02;3.55;;;5.40;99.90;;;;;;5000533;28;20125;-78
2022/11/26 01:17:50;;;;;;;4.55;3.42;;;5.40;99.90;;;;;;5000254;28;20374;-78
2022/11/26 01:20:26;;;;;;;3.17;2.88;;;5.40;99.90;;;;;;4987871;28;20042;-79
2022/11/26 01:22:54;;;;;;;4.65;3.00;;;5.40;99.90;;;;;;4998241;28;20053;-79
2022/11/26 01:25:20;;;;;;;5.50;2.65;;;5.40;99.90;;;;;;5000131;28;20548;-78
2022/11/26 01:27:46;;;;;;;7.43;3.22;;;5.40;99.90;;;;;;5002191;28;20048;-79
2022/11/26 01:30:24;;;;;;;9.65;3.83;;;5.30;99.90;;;;;;4983573;28;20037;-78
2022/11/26 01:32:50;;;;;;;6.95;2.78;;;5.40;99.90;;;;;;5001810;28;20452;-79
2022/11/26 01:35:17;;;;;;;13.23;2.88;;;5.40;99.90;;;;;;5000178;28;20154;-79
2022/11/26 01:37:44;;;;;;;7.95;4.05;;;5.30;99.90;;;;;;5000904;28;20041;-79
2022/11/26 01:40:24;;;;;;;5.07;2.50;;;5.30;99.90;;;;;;5001015;28;20259;-79
2022/11/26 01:42:56;;;;;;;6.63;4.18;;;5.30;99.90;;;;;;4985847;28;20034;-79
2022/11/26 01:45:22;;;;;;;18.85;3.85;;;5.30;99.90;;;;;;5001951;28;20496;-79
2022/11/26 01:47:48;;;;;;;4.50;2.72;;;5.20;99.90;;;;;;5001470;28;20045;-79
2022/11/26 01:50:35;;;;;;;13.00;5.63;;;5.20;99.90;;;;;;5003934;28;20560;-78
2022/11/26 01:53:10;;;;;;;4.97;2.45;;;5.20;99.90;;;;;;5002984;28;20145;-79
2022/11/26 01:55:45;;;;;;;15.38;5.03;;;5.20;99.90;;;;;;5005371;28;20046;-78
2022/11/26 01:58:15;;;;;;;15.07;4.53;;;5.20;99.90;;;;;;5004688;28;20493;-79
2022/11/26 02:00:41;;;;;;;4.13;2.13;;;5.20;99.90;;;;;;5003839;28;20057;-79
2022/11/26 02:03:07;;;;;;;7.68;3.33;;;5.10;99.90;;;;;;5081910;22;20057;-77
2022/11/26 02:05:44;;;;;;;8.52;3.15;;;5.10;99.90;;;;;;4987117;28;20094;-78
2022/11/26 02:08:11;;;;;;;5.80;2.90;;;5.10;99.90;;;;;;4985884;28;20507;-78
2022/11/26 02:10:37;;;;;;;5.25;3.00;;;5.10;99.90;;;;;;4987179;28;20125;-78
2022/11/26 02:13:03;;;;;;;18.58;3.72;;;5.00;99.90;;;;;;4985457;28;20523;-78
2022/11/26 02:15:39;;;;;;;5.90;1.83;;;5.10;99.90;;;;;;4987241;28;20050;-78
2022/11/26 02:18:07;;;;;;;3.58;2.28;;;5.00;99.90;;;;;;4986686;28;20069;-79
2022/11/26 02:20:47;;;;;;;4.30;2.70;;;5.00;99.90;;;;;;4985793;28;20047;-77
2022/11/26 02:23:37;;;;;;;6.40;2.42;;;4.90;99.90;;;;;;4984621;28;20031;-78
2022/11/26 02:26:17;;;;;;;10.10;2.92;;;4.90;99.90;;;;;;4981841;28;20088;-79
2022/11/26 02:29:11;;;;;;;9.85;2.55;;;4.80;99.90;;;;;;4986706;28;20050;-77
2022/11/26 02:31:59;;;;;;;6.70;3.30;;;4.80;99.90;;;;;;4975713;28;20267;-78
2022/11/26 02:34:32;;;;;;;8.00;2.10;;;4.80;99.90;;;;;;4985993;28;20086;-77
2022/11/26 02:37:01;;;;;;;6.68;2.30;;;4.70;99.90;;;;;;4985384;28;20073;-78
2022/11/26 02:39:28;;;;;;;19.92;2.10;;;4.70;99.90;;;;;;4985794;28;20109;-79
2022/11/26 02:41:57;;;;;;;15.13;3.95;;;4.70;99.90;;;;;;4986164;28;20125;-77
2022/11/26 02:44:27;;;;;;;3.85;1.88;;;4.70;99.90;;;;;;4986939;28;20670;-79
2022/11/26 02:46:58;;;;;;;5.18;2.72;;;4.70;99.90;;;;;;4985172;28;20391;-78
2022/11/26 02:49:26;;;;;;;10.05;3.05;;;4.70;99.90;;;;;;4986954;28;20460;-77
2022/11/26 02:51:58;;;;;;;6.88;3.92;;;4.70;99.90;;;;;;4985580;28;20053;-78
2022/11/26 02:54:26;;;;;;;9.25;3.40;;;4.70;99.90;;;;;;4986092;28;20492;-78
2022/11/26 02:56:53;;;;;;;10.20;4.13;;;4.70;99.90;;;;;;4985900;28;20440;-78
2022/11/26 02:59:19;;;;;;;4.75;2.75;;;4.70;99.90;;;;;;4986723;28;20551;-78
2022/11/26 03:01:49;;;;;;;7.00;3.38;;;4.70;99.90;;;;;;4985551;28;20046;-78
2022/11/26 03:04:23;;;;;;;7.65;4.00;;;4.70;99.90;;;;;;4984988;28;20146;-79
2022/11/26 03:06:50;;;;;;;19.13;3.15;;;4.70;99.90;;;;;;4985013;28;20038;-78
2022/11/26 03:09:16;;;;;;;12.05;3.13;;;4.70;99.90;;;;;;4986538;28;20101;-79
2022/11/26 03:11:42;;;;;;;13.95;3.67;;;4.70;99.90;;;;;;4984902;28;20774;-78
2022/11/26 03:14:08;;;;;;;5.55;2.22;;;4.70;99.90;;;;;;4984658;28;20046;-77
2022/11/26 03:16:34;;;;;;;9.23;4.30;;;4.70;99.90;;;;;;4984071;28;20042;-78
2022/11/26 03:19:00;;;;;;;6.07;2.88;;;4.70;99.90;;;;;;4984671;28;20065;-78
2022/11/26 03:21:25;;;;;;;13.18;4.53;;;4.80;99.90;;;;;;4985964;28;20046;-78
2022/11/26 03:23:51;;;;;;;5.05;3.08;;;4.80;99.90;;;;;;4983057;28;20654;-79
2022/11/26 03:26:17;;;;;;;13.02;4.35;;;4.80;99.90;;;;;;4985953;28;20057;-78
2022/11/26 03:28:42;;;;;;;11.15;3.58;;;4.80;99.90;;;;;;4984346;28;20042;-77
2022/11/26 03:31:08;;;;;;;4.20;3.42;;;4.80;99.90;;;;;;4981610;28;20180;-79
2022/11/26 03:33:33;;;;;;;7.55;3.17;;;4.80;99.90;;;;;;4970189;28;20489;-78
2022/11/26 03:35:59;;;;;;;7.45;4.10;;;4.80;99.90;;;;;;4964548;28;20126;-78
2022/11/26 03:38:25;;;;;;;5.93;3.63;;;4.80;99.90;;;;;;4964854;28;20512;-78
2022/11/26 03:40:59;;;;;;;6.15;3.03;;;4.80;99.90;;;;;;4982973;28;20039;-79
2022/11/26 03:43:25;;;;;;;10.60;4.35;;;4.80;99.90;;;;;;4967774;28;20054;-78
2022/11/26 03:45:50;;;;;;;9.73;3.25;;;4.80;99.90;;;;;;4979054;28;20039;-79
2022/11/26 03:48:16;;;;;;;13.40;3.50;;;4.80;99.90;;;;;;4985856;28;20050;-77
2022/11/26 03:50:41;;;;;;;8.27;3.13;;;4.90;99.90;;;;;;4974737;28;20057;-79
2022/11/26 03:53:07;;;;;;;5.43;2.85;;;4.90;99.90;;;;;;4980716;28;20046;-78
2022/11/26 03:55:33;;;;;;;21.65;4.63;;;4.90;99.90;;;;;;4984871;28;20053;-79
2022/11/26 03:57:59;;;;;;;8.68;4.35;;;4.90;99.90;;;;;;4974966;28;20125;-78
2022/11/26 04:00:25;;;;;;;11.52;3.67;;;4.80;99.90;;;;;;4985230;28;20038;-79
2022/11/26 04:02:51;;;;;;;20.60;4.40;;;4.80;99.90;;;;;;4984424;28;20905;-78
2022/11/26 04:05:17;;;;;;;12.43;5.10;;;4.90;99.90;;;;;;4982760;28;20058;-78
2022/11/26 04:07:42;;;;;;;5.20;4.07;;;4.90;99.90;;;;;;4965040;28;20515;-78
2022/11/26 04:10:08;;;;;;;7.85;3.92;;;4.80;99.90;;;;;;4966676;28;20043;-78
2022/11/26 04:12:34;;;;;;;8.68;4.95;;;4.90;99.90;;;;;;4972728;28;20552;-79
2022/11/26 04:15:00;;;;;;;7.65;4.28;;;4.90;99.90;;;;;;4984422;28;20108;-78
2022/11/26 04:17:25;;;;;;;6.57;3.72;;;4.80;99.90;;;;;;4971681;28;20062;-79
2022/11/26 04:19:51;;;;;;;8.90;3.45;;;4.80;99.90;;;;;;4979007;28;20046;-78
2022/11/26 04:22:16;;;;;;;9.40;3.58;;;4.80;99.90;;;;;;4980171;28;20034;-78
2022/11/26 04:24:42;;;;;;;7.88;4.15;;;4.80;99.90;;;;;;4967884;28;20452;-78
2022/11/26 04:27:08;;;;;;;9.32;5.35;;;4.80;99.90;;;;;;4967573;28;20047;-79
2022/11/26 04:29:35;;;;;;;8.85;3.78;;;4.70;99.90;;;;;;4976974;28;20046;-78
2022/11/26 04:32:00;;;;;;;7.90;4.38;;;4.70;99.90;;;;;;4968309;28;20047;-79
2022/11/26 04:34:26;;;;;;;10.35;4.65;;;4.70;99.90;;;;;;4969330;28;20908;-78
2022/11/26 04:36:51;;;;;;;15.77;5.10;;;4.80;99.90;;;;;;4964471;28;20046;-78
2022/11/26 04:39:17;;;;;;;11.90;4.32;;;4.80;99.90;;;;;;4965116;28;20066;-79
2022/11/26 04:41:43;;;;;;;16.00;4.53;;;4.70;99.90;;;;;;4965332;28;20043;-77
2022/11/26 04:44:08;;;;;;;17.42;5.93;;;4.80;99.90;;;;;;4964927;28;20397;-78
2022/11/26 04:46:34;;;;;;;11.00;4.35;;;4.80;99.90;;;;;;4970890;28;20050;-78
2022/11/26 04:48:59;;;;;;;8.82;4.20;;;4.80;99.90;;;;;;4982925;28;20049;-79
2022/11/26 04:51:25;;;;;;;8.15;4.30;;;4.80;99.90;;;;;;4972598;28;20054;-78
2022/11/26 04:53:50;;;;;;;11.93;5.82;;;4.80;99.90;;;;;;4969339;28;20047;-79
2022/11/26 04:56:16;;;;;;;8.23;4.28;;;4.90;99.90;;;;;;4983419;28;20046;-78
2022/11/26 04:58:42;;;;;;;8.55;4.10;;;4.90;99.90;;;;;;4974222;28;20055;-79
2022/11/26 05:01:07;;;;;;;8.13;4.75;;;4.90;99.90;;;;;;4980407;28;20034;-78
2022/11/26 05:03:35;;;;;;;14.32;6.20;;;4.90;99.90;;;;;;4984343;28;20093;-79
2022/11/26 05:06:00;;;;;;;5.35;3.45;;;4.90;99.90;;;;;;4983598;28;20050;-78
2022/11/26 05:08:26;;;;;;;11.98;5.38;;;4.90;99.90;;;;;;4983480;28;20038;-78
2022/11/26 05:10:53;;;;;;;11.65;4.40;;;4.90;99.90;;;;;;4983382;28;20587;-79
2022/11/26 05:13:18;;;;;;;9.93;3.90;;;4.90;99.90;;;;;;4982595;28;20405;-78
2022/11/26 05:15:44;;;;;;;6.88;4.50;;;4.90;99.90;;;;;;4984154;28;20083;-78
2022/11/26 05:18:10;;;;;;;10.40;3.95;;;4.90;99.90;;;;;;4966277;28;20834;-77
2022/11/26 05:20:35;;;;;;;10.98;4.25;;;4.90;99.90;;;;;;4983949;28;20046;-79
2022/11/26 05:23:01;;;;;;;7.00;3.40;;;4.80;99.90;;;;;;4964442;28;20512;-79
2022/11/26 05:25:26;;;;;;;7.13;2.90;;;4.80;99.90;;;;;;4968881;28;20211;-78
2022/11/26 05:27:52;;;;;;;7.88;4.90;;;4.70;99.90;;;;;;4987572;28;20038;-78
2022/11/26 05:30:17;;;;;;;16.58;5.07;;;4.80;99.90;;;;;;4988645;28;20046;-77
2022/11/26 05:32:43;;;;;;;8.52;3.33;;;4.80;99.90;;;;;;4987713;28;20077;-78
2022/11/26 05:35:09;;;;;;;8.98;5.18;;;4.80;99.90;;;;;;4987974;28;20042;-78
2022/11/26 05:37:35;;;;;;;12.90;4.50;;;4.90;99.90;;;;;;4986408;28;20711;-79
2022/11/26 05:40:01;;;;;;;18.00;5.60;;;4.90;99.90;;;;;;4987972;28;20096;-78
2022/11/26 05:42:26;;;;;;;12.95;5.65;;;4.90;99.90;;;;;;4987852;28;20048;-79
2022/11/26 05:44:52;;;;;;;12.32;4.80;;;4.90;99.90;;;;;;4987526;28;20550;-78
2022/11/26 05:47:17;;;;;;;10.90;4.85;;;4.90;99.90;;;;;;4988368;28;20042;-78
2022/11/26 05:49:43;;;;;;;13.57;5.43;;;5.00;99.90;;;;;;4987705;28;20497;-78
2022/11/26 05:52:08;;;;;;;8.63;5.47;;;5.00;99.90;;;;;;4985142;28;20046;-78
2022/11/26 05:54:34;;;;;;;8.02;4.60;;;5.00;99.90;;;;;;4987601;28;20132;-77
2022/11/26 05:57:00;;;;;;;12.38;5.90;;;5.00;99.90;;;;;;4987074;28;20073;-78
2022/11/26 05:59:26;;;;;;;14.82;4.78;;;5.00;99.90;;;;;;4969520;28;20066;-77
2022/11/26 06:01:51;;;;;;;26.75;5.38;;;5.00;99.90;;;;;;4972832;28;20400;-78
2022/11/26 06:04:17;;;;;;;18.58;6.25;;;5.00;99.90;;;;;;4985880;28;20145;-79
2022/11/26 06:06:43;;;;;;;11.63;5.13;;;5.00;99.90;;;;;;4986763;28;20737;-79
2022/11/26 06:09:08;;;;;;;8.55;5.47;;;5.00;99.90;;;;;;4985383;28;20046;-79
2022/11/26 06:11:34;;;;;;;8.32;5.55;;;5.00;99.90;;;;;;4987286;28;20535;-77
2022/11/26 06:14:00;;;;;;;11.52;4.07;;;5.00;99.90;;;;;;4959624;28;20137;-80
2022/11/26 06:16:26;;;;;;;12.35;4.38;;;5.00;99.90;;;;;;4987447;28;20295;-79
2022/11/26 06:18:52;;;;;;;12.38;6.97;;;5.00;99.90;;;;;;4969161;28;20094;-80
2022/11/26 06:21:18;;;;;;;26.60;5.38;;;5.00;99.90;;;;;;4967309;28;20082;-79
2022/11/26 06:23:43;;;;;;;13.23;5.50;;;5.00;99.90;;;;;;4979953;28;20105;-80
2022/11/26 06:26:10;;;;;;;12.13;5.53;;;5.00;99.90;;;;;;4985270;28;20113;-79
2022/11/26 06:28:36;;;;;;;8.27;6.13;;;5.00;99.90;;;;;;4985467;28;20072;-80
2022/11/26 06:31:01;;;;;;;17.73;5.13;;;4.90;99.90;;;;;;4985619;28;20126;-80
2022/11/26 06:33:27;;;;;;;12.35;4.63;;;5.00;99.90;;;;;;4987153;28;20129;-80
2022/11/26 06:35:58;;;;;;;8.82;4.85;;;4.90;99.90;;;;;;4984436;28;20065;-80
2022/11/26 06:38:24;;;;;;;7.57;4.15;;;4.90;99.90;;;;;;4959211;28;20722;-80
2022/11/26 06:41:05;;;;;;;24.98;4.18;;;4.80;99.90;;;;;;4969240;28;20158;-81
2022/11/26 06:43:32;;;;;;;13.02;5.82;;;4.80;99.90;;;;;;4986320;28;20042;-80
2022/11/26 06:46:09;;;;;;;14.73;4.90;;;4.80;99.90;;;;;;4984761;28;20057;-80
2022/11/26 06:48:35;;;;;;;12.98;5.05;;;4.80;99.90;;;;;;4972551;28;20071;-80
2022/11/26 06:51:06;;;;;;;21.08;5.60;;;4.90;99.90;;;;;;4968771;28;20045;-81
2022/11/26 06:53:32;;;;;;;11.60;6.40;;;4.90;99.90;;;;;;4985218;28;20042;-81
2022/11/26 06:56:02;;;;;;;8.63;4.43;;;4.90;99.90;;;;;;4984791;28;20046;-78
2022/11/26 06:58:28;;;;;;;13.98;6.72;;;4.90;99.90;;;;;;4986386;28;20046;-79
2022/11/26 07:00:54;;;;;;;9.82;5.10;;;4.90;99.90;;;;;;4986121;28;20089;-79
2022/11/26 07:03:20;;;;;;;19.02;6.30;;;5.00;99.90;;;;;;4984382;28;20088;-77
2022/11/26 07:05:46;;;;;;;14.23;6.28;;;5.00;99.90;;;;;;4985288;28;20058;-80
2022/11/26 07:08:11;;;;;;;13.50;6.00;;;5.00;99.90;;;;;;4983519;28;20108;-80
2022/11/26 07:10:37;;;;;;;9.95;4.68;;;5.00;99.90;;;;;;4984943;28;20073;-79
2022/11/26 07:13:03;;;;;;;15.25;7.30;;;5.10;99.90;;;;;;4985564;28;20030;-79
2022/11/26 07:15:28;;;;;;;20.27;7.82;;;5.10;99.90;;;;;;4986243;28;20049;-80
2022/11/26 07:17:54;;;;;;;9.38;7.07;;;5.00;99.90;;;;;;4983809;28;20093;-81
2022/11/26 07:20:20;;;;;;;13.05;6.50;;;5.10;99.90;;;;;;4983255;28;20053;-82
2022/11/26 07:22:46;;;;;;;20.63;7.63;;;5.10;99.90;;;;;;4989319;28;20085;-84
2022/11/26 07:25:12;;;;;;;10.48;7.00;;;5.10;99.90;;;;;;4984398;28;20620;-83
2022/11/26 07:27:37;;;;;;;20.02;5.45;;;5.10;99.90;;;;;;4973945;28;20543;-82
2022/11/26 07:30:04;;;;;;;15.02;6.63;;;5.10;99.90;;;;;;4985564;28;20101;-84
2022/11/26 07:32:30;;;;;;;20.77;7.03;;;5.10;99.90;;;;;;4984774;28;20489;-82
2022/11/26 07:34:55;;;;;;;26.98;9.20;;;5.00;99.90;;;;;;4985641;28;20049;-80
2022/11/26 07:37:21;;;;;;;12.30;6.35;;;5.10;99.90;;;;;;4990417;28;20034;-83
2022/11/26 07:39:47;;;;;;;18.80;6.25;;;5.10;99.90;;;;;;4983958;28;20046;-80
2022/11/26 07:42:13;;;;;;;15.77;6.22;;;5.10;99.90;;;;;;4983587;28;20065;-79
2022/11/26 07:44:39;;;;;;;25.45;7.20;;;5.10;99.90;;;;;;4986096;28;20093;-79
2022/11/26 07:47:04;;;;;;;16.27;6.88;;;5.10;99.90;;;;;;4985490;28;20504;-79
2022/11/26 07:49:30;;;;;;;20.55;7.80;;;5.20;99.90;;;;;;4984151;28;20170;-79
2022/11/26 07:51:55;;;;;;;18.10;6.43;;;5.20;99.90;;;;;;4984590;28;20053;-80
2022/11/26 07:54:21;;;;;;;30.80;7.78;;;5.20;99.90;;;;;;4990600;28;20496;-79
2022/11/26 07:56:47;;;;;;;20.17;8.25;;;5.20;99.90;;;;;;4984690;28;20046;-82
2022/11/26 07:59:12;;;;;;;23.77;8.32;;;5.20;99.90;;;;;;4979213;28;20055;-83
2022/11/26 08:01:38;;;;;;;17.40;8.32;;;5.30;99.90;;;;;;4977602;28;20055;-80
2022/11/26 08:04:05;;;;;;;38.53;8.88;;;5.30;99.90;;;;;;4970202;28;20405;-79
2022/11/26 08:06:32;;;;;;;23.23;9.35;;;5.30;99.90;;;;;;4965450;28;20066;-80
2022/11/26 08:08:58;;;;;;;17.77;8.93;;;5.30;99.90;;;;;;4966193;28;20492;-82
2022/11/26 08:11:27;;;;;;;15.43;7.10;;;5.40;99.90;;;;;;4983306;28;21491;-77
2022/11/26 08:14:01;;;;;;;12.93;8.85;;;5.40;99.90;;;;;;4984510;28;20073;-77
2022/11/26 08:16:27;;;;;;;17.17;7.82;;;5.40;99.90;;;;;;4972455;28;20065;-77
2022/11/26 08:18:57;;;;;;;12.98;7.45;;;5.40;99.90;;;;;;4982009;28;20038;-75
2022/11/26 08:21:22;;;;;;;9.60;6.72;;;5.50;99.90;;;;;;4983577;28;20045;-78
2022/11/26 08:23:49;;;;;;;12.48;6.88;;;5.50;99.90;;;;;;4981217;28;20486;-81
2022/11/26 08:26:15;;;;;;;16.75;8.05;;;5.50;99.90;;;;;;4972810;28;20052;-78
2022/11/26 08:28:45;;;;;;;18.27;9.30;;;5.50;99.90;;;;;;4984114;28;20133;-77
2022/11/26 08:31:14;;;;;;;20.42;9.60;;;5.60;99.90;;;;;;4982903;28;20038;-76
2022/11/26 08:33:39;;;;;;;16.40;9.27;;;5.70;99.90;;;;;;4982893;28;20540;-76
2022/11/26 08:36:06;;;;;;;27.27;10.70;;;5.70;99.90;;;;;;4982200;28;20623;-80
2022/11/26 08:38:32;;;;;;;19.63;8.80;;;5.70;99.90;;;;;;4983675;28;20089;-75
2022/11/26 08:41:03;;;;;;;23.40;10.15;;;5.70;99.90;;;;;;4983284;28;20548;-80
2022/11/26 08:43:28;;;;;;;29.73;10.63;;;5.80;99.90;;;;;;4983881;28;20043;-79
2022/11/26 08:45:56;;;;;;;19.02;9.30;;;5.80;99.90;;;;;;4983627;28;20042;-76
2022/11/26 08:48:22;;;;;;;23.60;10.32;;;5.90;99.90;;;;;;4983619;28;20050;-77
2022/11/26 08:50:48;;;;;;;15.35;8.80;;;5.90;99.90;;;;;;4983656;28;20045;-77
2022/11/26 08:53:14;;;;;;;21.92;10.35;;;5.90;99.90;;;;;;4982501;28;20052;-76
2022/11/26 08:55:40;;;;;;;24.52;10.60;;;6.00;99.90;;;;;;4983941;28;20125;-79
2022/11/26 08:58:05;;;;;;;32.15;11.23;;;6.00;99.90;;;;;;4981980;28;20077;-76
2022/11/26 09:00:31;;;;;;;29.10;12.27;;;6.10;99.90;;;;;;4987991;28;20069;-78
2022/11/26 09:02:57;;;;;;;22.80;11.68;;;6.10;99.90;;;;;;4985935;28;20452;-79
2022/11/26 09:05:22;;;;;;;32.85;13.13;;;6.20;99.90;;;;;;4987912;28;20461;-79
2022/11/26 09:07:48;;;;;;;18.88;10.68;;;6.20;99.90;;;;;;4985692;28;20070;-76
2022/11/26 09:10:14;;;;;;;23.90;12.50;;;6.30;99.90;;;;;;4987892;28;20133;-78
2022/11/26 09:12:39;;;;;;;18.33;11.27;;;6.30;99.90;;;;;;4987903;28;20085;-76
2022/11/26 09:15:05;;;;;;;30.17;11.77;;;6.30;99.90;;;;;;4986853;28;20038;-77
2022/11/26 09:17:31;;;;;;;21.98;12.15;;;6.40;99.90;;;;;;4987639;28;20045;-77
2022/11/26 09:19:57;;;;;;;32.72;13.85;;;6.40;99.90;;;;;;4986669;28;20404;-77
2022/11/26 09:22:22;;;;;;;20.00;12.40;;;6.40;99.90;;;;;;4986891;28;20042;-80
2022/11/26 09:24:48;;;;;;;35.70;13.30;;;6.50;99.90;;;;;;4986246;28;20051;-79
2022/11/26 09:27:14;;;;;;;27.45;11.85;;;6.50;99.90;;;;;;4971205;28;20053;-76
2022/11/26 09:29:39;;;;;;;43.33;13.57;;;6.50;99.90;;;;;;4967890;28;20066;-76
2022/11/26 09:32:06;;;;;;;26.88;12.95;;;6.50;99.90;;;;;;4967577;28;20844;-76
2022/11/26 09:34:32;;;;;;;26.45;13.93;;;6.60;99.90;;;;;;4968049;28;20047;-75
2022/11/26 09:36:57;;;;;;;35.15;12.38;;;6.60;99.90;;;;;;4966991;28;20105;-77
2022/11/26 09:39:23;;;;;;;30.52;12.23;;;6.70;99.90;;;;;;4967748;28;20089;-78
2022/11/26 09:42:05;;;;;;;36.92;14.43;;;6.70;99.90;;;;;;4967205;28;20046;-80
2022/11/26 09:44:53;;;;;;;35.80;15.93;;;6.70;99.90;;;;;;4967634;28;20078;-77
2022/11/26 09:47:21;;;;;;;25.05;14.55;;;6.70;99.90;;;;;;4965987;28;20057;-75
2022/11/26 09:50:05;;;;;;;43.28;15.43;;;6.70;99.90;;;;;;4967654;28;20050;-77
2022/11/26 09:52:45;;;;;;;32.78;17.27;;;6.80;99.90;;;;;;4966694;28;20042;-79
2022/11/26 09:55:11;;;;;;;47.67;13.30;;;6.80;99.90;;;;;;4967122;28;20302;-76
2022/11/26 09:57:43;;;;;;;31.20;13.43;;;6.90;99.90;;;;;;4968170;28;20050;-75
2022/11/26 10:00:22;;;;;;;27.42;15.10;;;6.80;99.90;;;;;;4965885;28;20061;-77
2022/11/26 10:02:51;;;;;;;33.65;15.25;;;6.90;99.90;;;;;;4967271;28;20066;-78
2022/11/26 10:05:17;;;;;;;34.33;15.35;;;6.90;99.90;;;;;;4968203;28;20055;-76
2022/11/26 10:07:56;;;;;;;34.25;14.40;;;6.90;99.90;;;;;;4965535;28;20042;-76
2022/11/26 10:10:34;;;;;;;43.15;14.57;;;7.00;99.90;;;;;;4966526;28;20055;-76
2022/11/26 10:13:11;;;;;;;38.92;16.02;;;7.10;99.90;;;;;;4967010;28;20409;-77
2022/11/26 10:15:44;;;;;;;28.50;15.00;;;7.10;99.90;;;;;;4967044;28;20189;-78
2022/11/26 10:18:23;;;;;;;38.22;15.68;;;7.10;99.90;;;;;;4966856;28;20050;-79
2022/11/26 10:20:53;;;;;;;27.17;15.25;;;7.10;99.90;;;;;;4965057;28;20054;-79
2022/11/26 10:23:56;;;;;;;26.38;13.98;;;7.20;99.90;;;;;;4967305;28;20202;-81
2022/11/26 10:26:28;;;;;;;27.00;16.08;;;7.30;99.90;;;;;;4967614;28;20078;-76
2022/11/26 10:29:24;;;;;;;49.17;16.88;;;7.30;99.90;;;;;;4967070;28;20050;-77
2022/11/26 10:31:55;;;;;;;28.90;15.70;;;7.40;99.90;;;;;;4966674;28;20046;-79
2022/11/26 10:34:46;;;;;;;33.15;16.85;;;7.40;99.90;;;;;;4966684;28;20078;-76
2022/11/26 10:37:12;;;;;;;44.20;18.00;;;7.40;99.90;;;;;;4959741;28;20166;-78
2022/11/26 10:39:38;;;;;;;29.13;16.58;;;7.40;99.90;;;;;;4967233;28;20353;-75
2022/11/26 10:42:17;;;;;;;27.65;16.92;;;7.40;99.90;;;;;;4966257;28;20042;-78
2022/11/26 10:44:43;;;;;;;33.95;16.58;;;7.50;99.90;;;;;;4967156;28;20054;-76
2022/11/26 10:47:26;;;;;;;39.78;16.55;;;7.50;99.90;;;;;;4965024;28;20077;-77
2022/11/26 10:50:13;;;;;;;34.17;17.52;;;7.50;99.90;;;;;;4966497;28;20136;-75
2022/11/26 10:52:39;;;;;;;36.45;17.05;;;7.50;99.90;;;;;;4958260;28;20050;-80
2022/11/26 10:55:28;;;;;;;26.25;15.27;;;7.60;99.90;;;;;;4966635;28;20069;-76
2022/11/26 10:57:57;;;;;;;47.97;17.33;;;7.60;99.90;;;;;;4966543;28;20046;-77
2022/11/26 11:00:34;;;;;;;44.35;16.42;;;7.60;99.90;;;;;;4966400;28;20386;-75
2022/11/26 11:03:00;;;;;;;45.75;17.20;;;7.70;99.90;;;;;;4966757;28;20081;-79
2022/11/26 11:05:27;;;;;;;24.58;16.27;;;7.70;99.90;;;;;;4965111;28;20448;-75
2022/11/26 11:07:53;;;;;;;37.22;15.90;;;7.70;99.90;;;;;;4966390;28;20086;-79
2022/11/26 11:10:23;;;;;;;30.08;14.63;;;7.70;99.90;;;;;;4966331;28;20093;-77
2022/11/26 11:12:59;;;;;;;35.33;13.20;;;7.70;99.90;;;;;;4966310;28;20390;-78
2022/11/26 11:15:27;;;;;;;33.78;15.65;;;7.70;99.90;;;;;;4966435;28;20043;-76
2022/11/26 11:18:05;;;;;;;48.17;17.00;;;7.80;99.90;;;;;;4966080;28;20131;-77
2022/11/26 11:20:41;;;;;;;43.53;15.32;;;7.70;99.90;;;;;;4965057;28;20043;-79
2022/11/26 11:23:22;;;;;;;38.75;14.45;;;7.80;99.90;;;;;;4964043;28;20448;-76
2022/11/26 11:26:07;;;;;;;29.85;15.05;;;7.80;99.90;;;;;;4971294;28;20043;-78
2022/11/26 11:28:38;;;;;;;30.92;14.60;;;7.80;99.90;;;;;;4985615;28;20042;-79
2022/11/26 11:31:14;;;;;;;27.95;14.35;;;7.80;99.90;;;;;;4985665;28;20467;-78
2022/11/26 11:33:40;;;;;;;34.97;15.73;;;7.80;99.90;;;;;;4985802;28;20088;-76
2022/11/26 11:36:18;;;;;;;29.20;13.80;;;7.90;99.90;;;;;;4982845;28;20038;-76
2022/11/26 11:38:56;;;;;;;28.85;14.23;;;7.80;99.90;;;;;;4985289;28;20044;-76
2022/11/26 11:41:45;;;;;;;28.92;11.82;;;7.90;99.90;;;;;;4985883;28;20048;-77
2022/11/26 11:44:30;;;;;;;27.30;14.15;;;7.90;99.90;;;;;;4967722;28;20049;-77
2022/11/26 11:47:12;;;;;;;44.80;13.57;;;7.90;99.90;;;;;;4983144;28;20077;-78
2022/11/26 11:50:01;;;;;;;36.05;14.98;;;7.90;99.90;;;;;;4985244;28;20039;-76
2022/11/26 11:52:51;;;;;;;40.95;14.02;;;7.90;99.90;;;;;;4975042;28;20501;-77
2022/11/26 11:55:34;;;;;;;29.13;12.65;;;7.90;99.90;;;;;;4984441;28;20073;-76
2022/11/26 11:58:38;;;;;;;22.90;13.07;;;7.90;99.90;;;;;;4984728;28;20049;-75
2022/11/26 12:01:08;;;;;;;21.33;10.90;;;7.90;99.90;;;;;;4984020;28;20042;-78
2022/11/26 12:04:17;;;;;;;32.30;14.02;;;8.00;99.90;;;;;;4983816;28;20069;-79
2022/11/26 12:07:16;;;;;;;26.92;11.60;;;8.00;99.90;;;;;;4984211;28;20048;-78
2022/11/26 12:10:01;;;;;;;24.75;12.23;;;8.00;99.90;;;;;;4985265;28;20068;-76
2022/11/26 12:12:32;;;;;;;19.35;12.13;;;8.00;99.90;;;;;;4984910;28;20085;-79
2022/11/26 12:15:10;;;;;;;25.20;10.68;;;8.10;99.90;;;;;;4984568;28;20046;-78
2022/11/26 12:18:04;;;;;;;27.77;12.95;;;8.10;99.90;;;;;;4984705;28;20046;-76
2022/11/26 12:20:35;;;;;;;33.58;12.95;;;8.10;99.90;;;;;;4982229;28;20047;-76
2022/11/26 12:23:03;;;;;;;20.92;13.68;;;8.10;99.90;;;;;;4984351;28;20266;-76
2022/11/26 12:25:36;;;;;;;22.25;11.55;;;8.10;99.90;;;;;;4980357;28;20042;-77
2022/11/26 12:28:05;;;;;;;;;;;8.20;99.90;;;;;;4964236;28;20482;-78
2022/11/26 12:30:53;;;;;;;40.63;11.45;;;8.20;99.90;;;;;;4965315;28;19957;-76
2022/11/26 12:33:34;;;;;;;26.58;12.88;;;8.20;99.90;;;;;;4964971;28;20480;-76
2022/11/26 12:36:11;;;;;;;24.88;11.95;;;8.20;99.90;;;;;;4964132;28;20057;-78
2022/11/26 12:39:16;;;;;;;23.25;10.88;;;8.20;99.90;;;;;;4964439;28;20043;-77
2022/11/26 12:41:52;;;;;;;26.13;11.82;;;8.20;99.90;;;;;;4963183;28;20085;-77
2022/11/26 12:44:30;;;;;;;27.55;11.07;;;8.20;99.90;;;;;;4965007;28;20047;-76
2022/11/26 12:47:11;;;;;;;19.67;12.73;;;8.20;99.90;;;;;;4964594;28;20085;-75
2022/11/26 12:50:03;;;;;;;20.10;11.43;;;8.20;99.90;;;;;;4965226;28;20055;-78
2022/11/26 12:52:56;;;;;;;22.63;11.13;;;8.30;99.90;;;;;;4965134;28;20057;-79
2022/11/26 12:55:34;;;;;;;26.58;11.70;;;8.20;99.90;;;;;;4964589;28;20054;-78
2022/11/26 12:58:11;;;;;;;21.27;11.50;;;8.20;99.90;;;;;;4964896;28;20051;-77
2022/11/26 13:00:37;;;;;;;28.80;12.23;;;8.20;99.90;;;;;;4965512;28;20173;-77
2022/11/26 13:03:13;;;;;;;19.40;9.40;;;8.30;99.90;;;;;;4962815;28;20146;-81
2022/11/26 13:05:45;;;;;;;26.55;10.15;;;8.30;99.90;;;;;;4963895;28;20066;-73